Time;durP1;ratioP1;P1;durP2;ratioP2;P2;SDS_P1;SDS_P2;PMS_P1;PMS_P2;Temp;Humidity;BMP_temperature;BMP_pressure;BME280_temperature;BME280_humidity;BME280_pressure;Samples;Min_cycle;Max_cycle;Signal;HPM_P1;HPM_P2
2023/05/11 00:00:30;;;;;;;9.88;4.82;;;13.30;99.90;;;;;;4993133;28;20757;-71
2023/05/11 00:02:58;;;;;;;7.07;4.60;;;13.30;99.90;;;;;;4968924;28;20455;-73
2023/05/11 00:05:29;;;;;;;7.07;4.72;;;13.20;99.90;;;;;;4975994;28;20411;-73
2023/05/11 00:07:56;;;;;;;6.00;4.78;;;13.20;99.90;;;;;;4973456;28;20050;-72
2023/05/11 00:10:29;;;;;;;6.05;4.20;;;13.20;99.90;;;;;;4968015;28;20114;-77
2023/05/11 00:13:03;;;;;;;7.05;4.60;;;13.20;99.90;;;;;;4968730;28;20061;-76
2023/05/11 00:15:31;;;;;;;7.18;4.93;;;13.10;99.90;;;;;;4970353;28;20070;-82
2023/05/11 00:17:58;;;;;;;6.97;4.75;;;13.20;99.90;;;;;;4977437;28;20133;-78
2023/05/11 00:20:27;;;;;;;7.45;4.50;;;13.20;99.90;;;;;;4971570;28;20081;-72
2023/05/11 00:23:00;;;;;;;6.78;4.28;;;13.30;99.90;;;;;;4949876;28;20047;-74
2023/05/11 00:25:30;;;;;;;7.80;4.65;;;13.20;99.90;;;;;;4972283;28;20085;-71
2023/05/11 00:28:01;;;;;;;8.77;4.90;;;13.20;99.90;;;;;;4960743;28;20062;-74
2023/05/11 00:30:33;;;;;;;11.70;4.93;;;13.20;99.90;;;;;;4977037;28;20046;-74
2023/05/11 00:33:00;;;;;;;7.88;4.90;;;13.10;99.90;;;;;;4997073;23;20052;-74
2023/05/11 00:35:39;;;;;;;8.02;4.55;;;13.10;99.90;;;;;;5012426;28;20042;-69
2023/05/11 00:38:14;;;;;;;7.65;4.80;;;13.10;99.90;;;;;;4975273;28;20480;-76
2023/05/11 00:40:42;;;;;;;7.70;4.75;;;13.20;99.90;;;;;;4982631;28;20050;-79
2023/05/11 00:43:12;;;;;;;8.65;4.72;;;13.20;99.90;;;;;;4965144;28;20704;-80
2023/05/11 00:45:40;;;;;;;7.72;4.75;;;13.20;99.90;;;;;;4977090;28;20050;-76
2023/05/11 00:48:09;;;;;;;6.40;4.57;;;13.20;99.90;;;;;;4980287;28;20047;-72
2023/05/11 00:50:43;;;;;;;7.82;4.70;;;13.30;99.90;;;;;;4986960;28;20066;-78
2023/05/11 00:53:11;;;;;;;5.68;4.70;;;13.20;99.90;;;;;;5024515;22;20058;-80
2023/05/11 00:55:39;;;;;;;5.30;4.30;;;13.20;99.90;;;;;;4983506;28;20113;-76
2023/05/11 00:58:07;;;;;;;7.57;4.47;;;13.20;99.90;;;;;;4983864;28;20096;-74
2023/05/11 01:00:39;;;;;;;6.50;4.53;;;13.10;99.90;;;;;;5003428;28;20100;-74
2023/05/11 01:03:13;;;;;;;7.85;4.47;;;13.20;99.90;;;;;;4996275;28;20402;-76
2023/05/11 01:06:22;;;;;;;10.60;4.67;;;13.20;99.90;;;;;;5015243;28;20097;-75
2023/05/11 01:09:40;;;;;;;6.47;4.45;;;13.10;99.90;;;;;;5009132;28;20263;-77
2023/05/11 01:12:39;;;;;;;9.60;4.30;;;13.10;99.90;;;;;;5023802;28;20062;-80
2023/05/11 01:15:13;;;;;;;5.57;4.50;;;13.10;99.90;;;;;;4996331;28;20046;-77
2023/05/11 01:17:59;;;;;;;6.68;4.40;;;13.10;99.90;;;;;;4995720;28;20054;-74
2023/05/11 01:20:30;;;;;;;8.02;4.55;;;13.20;99.90;;;;;;4983174;28;20062;-71
2023/05/11 01:23:17;;;;;;;5.25;4.28;;;13.10;99.90;;;;;;4985023;28;20053;-75
2023/05/11 01:26:03;;;;;;;6.18;4.57;;;13.10;99.90;;;;;;4989545;28;20054;-78
2023/05/11 01:29:12;;;;;;;6.25;4.68;;;13.10;99.90;;;;;;4996907;28;20061;-79
2023/05/11 01:31:45;;;;;;;6.78;4.50;;;13.10;99.90;;;;;;5004876;28;20044;-75
2023/05/11 01:34:23;;;;;;;7.70;4.30;;;13.10;99.90;;;;;;4987458;28;20054;-73
2023/05/11 01:36:58;;;;;;;6.00;4.60;;;13.10;99.90;;;;;;4988048;28;20052;-78
2023/05/11 01:39:34;;;;;;;6.80;4.82;;;13.10;99.90;;;;;;4985852;28;20427;-77
2023/05/11 01:42:12;;;;;;;8.90;4.53;;;13.10;99.90;;;;;;4991192;28;20053;-78
2023/05/11 01:44:43;;;;;;;6.45;4.40;;;13.00;99.90;;;;;;4989814;28;20085;-75
2023/05/11 01:47:13;;;;;;;7.63;4.38;;;13.10;99.90;;;;;;5003057;28;20053;-78
2023/05/11 01:49:44;;;;;;;6.00;4.60;;;13.00;99.90;;;;;;4970886;28;20400;-78
2023/05/11 01:52:13;;;;;;;8.73;4.85;;;13.00;99.90;;;;;;4975809;28;20049;-81
2023/05/11 01:54:46;;;;;;;8.05;4.80;;;13.00;99.90;;;;;;4997476;28;20046;-79
2023/05/11 01:57:15;;;;;;;7.72;4.82;;;12.90;99.90;;;;;;4970047;28;20057;-75
2023/05/11 01:59:45;;;;;;;6.65;4.35;;;13.00;99.90;;;;;;4983241;28;20057;-76
2023/05/11 02:02:13;;;;;;;7.32;4.97;;;12.90;99.90;;;;;;4975374;28;20085;-74
2023/05/11 02:04:53;;;;;;;6.72;4.25;;;12.90;99.90;;;;;;4972708;28;20055;-73
2023/05/11 02:07:23;;;;;;;9.07;4.90;;;12.90;99.90;;;;;;4972427;28;20462;-77
2023/05/11 02:09:51;;;;;;;8.88;4.45;;;12.90;99.90;;;;;;4964630;28;20416;-74
2023/05/11 02:12:24;;;;;;;7.97;4.82;;;12.90;99.90;;;;;;4993731;28;20050;-76
2023/05/11 02:14:58;;;;;;;5.80;4.50;;;12.90;99.90;;;;;;4970230;28;20083;-79
2023/05/11 02:17:29;;;;;;;5.78;4.35;;;12.90;99.90;;;;;;4969199;28;20062;-78
2023/05/11 02:20:00;;;;;;;6.22;4.90;;;12.90;99.90;;;;;;4961081;28;20110;-75
2023/05/11 02:22:31;;;;;;;6.03;4.65;;;12.90;99.90;;;;;;4947888;28;20051;-76
2023/05/11 02:24:58;;;;;;;7.82;4.90;;;12.80;99.90;;;;;;4972321;28;20140;-79
2023/05/11 02:27:26;;;;;;;6.15;4.95;;;12.70;99.90;;;;;;4982200;28;20510;-77
2023/05/11 02:29:54;;;;;;;10.40;4.43;;;12.70;99.90;;;;;;4966782;28;20538;-79
2023/05/11 02:32:24;;;;;;;6.25;4.93;;;12.70;99.90;;;;;;4976009;28;20519;-74
2023/05/11 02:35:00;;;;;;;8.25;5.35;;;12.80;99.90;;;;;;4966304;28;20079;-75
2023/05/11 02:37:31;;;;;;;7.35;5.00;;;12.70;99.90;;;;;;4979491;28;20050;-77
2023/05/11 02:40:05;;;;;;;6.15;4.82;;;12.70;99.90;;;;;;4962291;28;20063;-76
2023/05/11 02:42:38;;;;;;;7.93;4.80;;;12.70;99.90;;;;;;4976612;28;20133;-77
2023/05/11 02:45:13;;;;;;;8.93;4.90;;;12.70;99.90;;;;;;4977239;28;20063;-76
2023/05/11 02:47:51;;;;;;;8.75;5.18;;;12.70;99.90;;;;;;4978280;28;20484;-75
2023/05/11 02:50:23;;;;;;;8.57;5.32;;;12.60;99.90;;;;;;4967237;28;20468;-77
2023/05/11 02:52:53;;;;;;;7.95;5.15;;;12.50;99.90;;;;;;4986004;28;20050;-75
2023/05/11 02:55:22;;;;;;;6.38;5.03;;;12.60;99.90;;;;;;4976607;28;20101;-73
2023/05/11 02:57:55;;;;;;;6.13;4.78;;;12.70;99.90;;;;;;4983209;28;20098;-76
2023/05/11 03:00:23;;;;;;;6.60;4.93;;;12.70;99.90;;;;;;4959166;28;20055;-70
2023/05/11 03:02:54;;;;;;;7.75;5.55;;;12.70;99.90;;;;;;4959194;28;20055;-74
2023/05/11 03:05:23;;;;;;;7.80;4.93;;;12.70;99.90;;;;;;4965119;28;20054;-74
2023/05/11 03:07:51;;;;;;;9.23;5.13;;;12.60;99.90;;;;;;4948640;28;20049;-74
2023/05/11 03:10:21;;;;;;;5.80;4.90;;;12.60;99.90;;;;;;4973022;28;20112;-76
2023/05/11 03:12:50;;;;;;;5.68;4.63;;;12.50;99.90;;;;;;4979575;28;20503;-74
2023/05/11 03:15:19;;;;;;;8.70;4.85;;;12.60;99.90;;;;;;4964804;28;20457;-72
2023/05/11 03:17:50;;;;;;;8.05;5.03;;;12.60;99.90;;;;;;4982535;28;20058;-77
2023/05/11 03:20:21;;;;;;;7.15;5.10;;;12.60;99.90;;;;;;4961546;28;20149;-75
2023/05/11 03:22:48;;;;;;;;;;;12.50;99.90;;;;;;4948717;28;20146;-73
2023/05/11 03:25:20;;;;;;;8.13;4.90;;;12.50;99.90;;;;;;4954776;28;20089;-75
2023/05/11 03:27:50;;;;;;;17.90;5.60;;;12.50;99.90;;;;;;4978348;28;20145;-76
2023/05/11 03:30:19;;;;;;;7.50;4.90;;;12.50;99.90;;;;;;4968458;28;20428;-74
2023/05/11 03:32:52;;;;;;;5.28;4.53;;;12.40;99.90;;;;;;4975746;28;20296;-74
2023/05/11 03:35:24;;;;;;;7.20;4.85;;;12.50;99.90;;;;;;4981390;28;20055;-73
2023/05/11 03:37:53;;;;;;;5.95;4.90;;;12.50;99.90;;;;;;4985226;28;20070;-78
2023/05/11 03:40:23;;;;;;;7.25;5.18;;;12.40;99.90;;;;;;4991116;28;20065;-78
2023/05/11 03:42:55;;;;;;;6.38;4.82;;;12.50;99.90;;;;;;4977135;28;20062;-74
2023/05/11 03:45:26;;;;;;;7.65;4.95;;;12.50;99.90;;;;;;4976793;28;20058;-70
2023/05/11 03:47:55;;;;;;;8.75;4.90;;;12.40;99.90;;;;;;4965031;28;20488;-74
2023/05/11 03:50:23;;;;;;;10.30;5.28;;;12.50;99.90;;;;;;4975590;28;20055;-73
2023/05/11 03:52:51;;;;;;;7.55;5.30;;;12.50;99.90;;;;;;4991751;28;20069;-74
2023/05/11 03:55:18;;;;;;;7.60;5.50;;;12.50;99.90;;;;;;4987076;28;20118;-70
2023/05/11 03:57:47;;;;;;;7.55;5.82;;;12.50;99.90;;;;;;4995221;28;20101;-75
2023/05/11 04:00:15;;;;;;;7.88;5.18;;;12.40;99.90;;;;;;4984525;28;20059;-74
2023/05/11 04:02:43;;;;;;;10.15;4.72;;;12.40;99.90;;;;;;4998593;28;20066;-75
2023/05/11 04:05:11;;;;;;;7.70;5.15;;;12.40;99.90;;;;;;4998003;28;20047;-71
2023/05/11 04:07:40;;;;;;;8.02;5.03;;;12.40;99.90;;;;;;4964800;28;20057;-74
2023/05/11 04:10:08;;;;;;;9.57;5.20;;;12.40;99.90;;;;;;4981337;28;20146;-71
2023/05/11 04:12:36;;;;;;;8.80;5.38;;;12.50;99.90;;;;;;4964715;28;20137;-75
2023/05/11 04:15:04;;;;;;;11.07;5.22;;;12.50;99.90;;;;;;4965068;28;20058;-72
2023/05/11 04:17:31;;;;;;;8.00;5.07;;;12.40;99.90;;;;;;4980098;28;20050;-77
2023/05/11 04:19:58;;;;;;;7.20;5.32;;;12.40;99.90;;;;;;4998436;28;20065;-76
2023/05/11 04:22:25;;;;;;;8.10;5.45;;;12.40;99.90;;;;;;4998639;28;20050;-73
2023/05/11 04:24:53;;;;;;;9.45;5.22;;;12.30;99.90;;;;;;4998669;28;20049;-76
2023/05/11 04:27:20;;;;;;;7.40;5.30;;;12.40;99.90;;;;;;4999905;28;20077;-77
2023/05/11 04:29:47;;;;;;;7.68;5.90;;;12.30;99.90;;;;;;5001581;28;20053;-75
2023/05/11 04:32:15;;;;;;;9.50;5.47;;;12.30;99.90;;;;;;4994321;28;20049;-76
2023/05/11 04:34:42;;;;;;;6.90;5.15;;;12.30;99.90;;;;;;4996932;28;20470;-76
2023/05/11 04:37:09;;;;;;;8.45;5.03;;;12.30;99.90;;;;;;4997615;28;20042;-78
2023/05/11 04:39:37;;;;;;;6.53;4.95;;;12.30;99.90;;;;;;5002619;28;20050;-78
2023/05/11 04:42:04;;;;;;;9.20;5.45;;;12.20;99.90;;;;;;5003211;28;20053;-76
2023/05/11 04:44:31;;;;;;;8.13;5.53;;;12.20;99.90;;;;;;5004144;28;20046;-73
2023/05/11 04:46:58;;;;;;;9.15;5.35;;;12.20;99.90;;;;;;4983537;28;20092;-72
2023/05/11 04:49:29;;;;;;;8.40;5.53;;;12.30;99.90;;;;;;4987677;28;20050;-75
2023/05/11 04:51:57;;;;;;;9.52;5.38;;;12.40;99.90;;;;;;4967306;28;20100;-77
2023/05/11 04:54:30;;;;;;;7.55;5.65;;;12.40;99.90;;;;;;4955377;28;20046;-75
2023/05/11 04:56:57;;;;;;;9.48;5.07;;;12.30;99.90;;;;;;5002948;28;20120;-75
2023/05/11 04:59:26;;;;;;;6.70;5.15;;;12.20;99.90;;;;;;5007338;28;20042;-77
2023/05/11 05:01:57;;;;;;;7.30;5.13;;;12.40;99.90;;;;;;4993689;28;20062;-77
2023/05/11 05:04:25;;;;;;;37.37;23.90;;;12.40;99.90;;;;;;5001982;28;20594;-81
2023/05/11 05:06:53;;;;;;;40.10;28.67;;;12.50;99.90;;;;;;4988247;28;20050;-80
2023/05/11 05:09:20;;;;;;;32.10;20.42;;;12.80;99.90;;;;;;4979365;28;20483;-82
2023/05/11 05:11:47;;;;;;;26.27;17.80;;;12.80;99.90;;;;;;5010716;28;20651;-71
2023/05/11 05:14:15;;;;;;;10.90;7.65;;;13.10;99.90;;;;;;5008891;28;20058;-73
2023/05/11 05:16:42;;;;;;;11.32;6.45;;;13.10;99.90;;;;;;4995720;28;20054;-71
2023/05/11 05:19:34;;;;;;;13.63;7.35;;;12.90;99.90;;;;;;4993242;28;20077;-76
2023/05/11 05:22:02;;;;;;;10.50;5.22;;;13.10;99.90;;;;;;5006704;28;20064;-74
2023/05/11 05:24:32;;;;;;;6.57;4.90;;;12.90;99.90;;;;;;5010828;28;20050;-75
2023/05/11 05:27:06;;;;;;;7.30;4.97;;;12.70;99.90;;;;;;4989196;28;20062;-80
2023/05/11 05:29:48;;;;;;;7.10;5.03;;;12.60;99.90;;;;;;4977247;28;20042;-74
2023/05/11 05:32:16;;;;;;;7.30;5.07;;;12.70;99.90;;;;;;4998237;28;20402;-71
2023/05/11 05:34:45;;;;;;;10.55;5.03;;;12.60;99.90;;;;;;4969559;28;20062;-80
2023/05/11 05:37:13;;;;;;;10.82;5.13;;;12.60;99.90;;;;;;4969317;28;20129;-74
2023/05/11 05:39:48;;;;;;;20.95;11.90;;;12.60;99.90;;;;;;4961192;28;20050;-72
2023/05/11 05:42:44;;;;;;;20.30;10.43;;;12.70;99.90;;;;;;4993871;28;20054;-76
2023/05/11 05:45:23;;;;;;;16.38;10.40;;;12.80;99.90;;;;;;4961273;28;20129;-78
2023/05/11 05:48:08;;;;;;;10.02;5.32;;;12.90;99.90;;;;;;4982753;28;20485;-79
2023/05/11 05:51:00;;;;;;;8.65;5.20;;;12.80;99.90;;;;;;5010633;28;20050;-80
2023/05/11 05:53:36;;;;;;;8.88;5.25;;;12.60;99.90;;;;;;4977715;28;20106;-75
2023/05/11 05:56:18;;;;;;;7.25;5.20;;;12.70;99.90;;;;;;4984320;28;20065;-78
2023/05/11 05:58:52;;;;;;;6.43;5.13;;;12.70;99.90;;;;;;4954551;28;20083;-79
2023/05/11 06:01:21;;;;;;;6.83;5.20;;;12.80;99.90;;;;;;4974769;28;20070;-77
2023/05/11 06:03:50;;;;;;;6.85;5.07;;;12.70;99.90;;;;;;5004155;28;20058;-81
2023/05/11 06:06:24;;;;;;;8.40;6.00;;;12.80;99.90;;;;;;4967239;28;20057;-75
2023/05/11 06:09:02;;;;;;;10.43;5.43;;;12.80;99.90;;;;;;4975736;28;20073;-79
2023/05/11 06:11:40;;;;;;;8.95;5.40;;;12.70;99.90;;;;;;4989768;28;20045;-73
2023/05/11 06:14:27;;;;;;;8.50;5.28;;;12.70;99.90;;;;;;5018771;28;20045;-79
2023/05/11 06:17:09;;;;;;;7.35;5.35;;;12.80;99.90;;;;;;4982800;28;20058;-76
2023/05/11 06:19:52;;;;;;;20.70;15.13;;;12.90;99.90;;;;;;4992663;28;20054;-77
2023/05/11 06:23:03;;;;;;;38.50;22.55;;;12.90;99.90;;;;;;4956399;28;20054;-78
2023/05/11 06:25:53;;;;;;;18.63;12.65;;;13.10;99.90;;;;;;5003704;28;20078;-76
2023/05/11 06:28:31;;;;;;;8.52;6.25;;;13.20;99.90;;;;;;4948803;28;20050;-80
2023/05/11 06:31:04;;;;;;;8.00;5.45;;;13.20;99.90;;;;;;5000155;28;20084;-72
2023/05/11 06:33:39;;;;;;;7.38;5.38;;;13.00;99.90;;;;;;5055683;23;20088;-74
2023/05/11 06:36:52;;;;;;;7.75;5.20;;;13.00;99.90;;;;;;5021949;28;20042;-78
2023/05/11 06:39:23;;;;;;;8.55;5.20;;;13.00;99.90;;;;;;5028462;23;20045;-78
2023/05/11 06:41:56;;;;;;;7.68;5.75;;;12.90;99.90;;;;;;5038974;28;20049;-72
2023/05/11 06:44:30;;;;;;;6.85;4.68;;;12.90;99.90;;;;;;5026808;28;20052;-78
2023/05/11 06:47:20;;;;;;;9.00;5.10;;;13.00;99.90;;;;;;5020423;28;20069;-78
2023/05/11 06:50:09;;;;;;;7.47;5.15;;;13.10;99.90;;;;;;5017925;28;20058;-77
2023/05/11 06:53:00;;;;;;;9.38;4.80;;;13.10;99.90;;;;;;5018162;28;20050;-75
2023/05/11 06:55:36;;;;;;;7.63;5.60;;;13.00;99.90;;;;;;5031726;28;20041;-79
2023/05/11 06:58:05;;;;;;;8.07;4.70;;;12.90;99.90;;;;;;5005384;28;20046;-76
2023/05/11 07:00:57;;;;;;;7.50;4.72;;;12.90;99.90;;;;;;5048266;28;20049;-78
2023/05/11 07:04:04;;;;;;;6.47;4.30;;;13.00;99.90;;;;;;5058056;22;20049;-73
2023/05/11 07:06:59;;;;;;;53.33;32.80;;;13.00;99.90;;;;;;5052657;28;20049;-83
2023/05/11 07:09:41;;;;;;;120.05;70.47;;;13.10;99.90;;;;;;5040300;28;20053;-79
2023/05/11 07:12:26;;;;;;;18.25;13.73;;;13.30;99.90;;;;;;5027587;28;20041;-76
2023/05/11 07:14:54;;;;;;;7.22;6.00;;;13.30;99.90;;;;;;4997564;28;20049;-80
2023/05/11 07:17:27;;;;;;;7.60;5.00;;;13.30;99.90;;;;;;5031198;28;20427;-74
2023/05/11 07:20:11;;;;;;;6.60;4.57;;;13.20;99.90;;;;;;5022353;28;20057;-75
2023/05/11 07:22:40;;;;;;;7.72;4.97;;;13.20;99.90;;;;;;5027133;28;20049;-73
2023/05/11 07:25:36;;;;;;;7.55;4.72;;;13.20;99.90;;;;;;5059061;28;20045;-78
2023/05/11 07:28:06;;;;;;;7.35;4.70;;;13.20;99.90;;;;;;5030224;28;20063;-77
2023/05/11 07:30:40;;;;;;;8.98;4.60;;;13.20;99.90;;;;;;5064147;28;20227;-78
2023/05/11 07:33:17;;;;;;;6.55;4.80;;;13.20;99.90;;;;;;5041361;23;20046;-74
2023/05/11 07:36:02;;;;;;;11.60;5.05;;;13.30;99.90;;;;;;5027952;28;20075;-71
2023/05/11 07:38:38;;;;;;;7.88;4.72;;;13.30;99.90;;;;;;5028464;28;20054;-74
2023/05/11 07:41:07;;;;;;;6.28;4.93;;;13.40;99.90;;;;;;5010636;22;20057;-75
2023/05/11 07:43:39;;;;;;;7.10;4.85;;;13.40;99.90;;;;;;4996467;28;20040;-72
2023/05/11 07:46:06;;;;;;;9.55;4.88;;;13.30;99.90;;;;;;5022201;28;20061;-73
2023/05/11 07:48:34;;;;;;;7.57;5.40;;;13.40;99.90;;;;;;4989845;28;20042;-75
2023/05/11 07:51:09;;;;;;;13.35;5.05;;;13.50;99.90;;;;;;5015302;28;20045;-75
2023/05/11 07:53:54;;;;;;;36.03;17.90;;;13.50;99.90;;;;;;5019585;28;20049;-73
2023/05/11 07:57:06;;;;;;;53.38;30.33;;;13.60;99.90;;;;;;4997927;28;20053;-75
2023/05/11 08:00:19;;;;;;;74.47;47.13;;;13.90;99.90;;;;;;5009574;28;20118;-75
2023/05/11 08:03:20;;;;;;;55.15;37.42;;;14.00;99.90;;;;;;4971763;28;20054;-77
2023/05/11 08:06:02;;;;;;;9.27;7.80;;;14.00;99.90;;;;;;4991351;28;20069;-74
2023/05/11 08:08:46;;;;;;;7.03;5.10;;;13.80;99.90;;;;;;5040149;28;20058;-79
2023/05/11 08:11:31;;;;;;;5.57;4.50;;;13.60;99.90;;;;;;5000988;28;20053;-74
2023/05/11 08:14:03;;;;;;;7.15;4.10;;;13.60;99.90;;;;;;5012768;28;20065;-72
2023/05/11 08:16:39;;;;;;;9.80;5.10;;;13.60;99.90;;;;;;4999949;28;20054;-75
2023/05/11 08:19:14;;;;;;;7.50;4.40;;;13.50;99.90;;;;;;4980541;28;20442;-75
2023/05/11 08:21:57;;;;;;;7.88;5.75;;;13.50;99.90;;;;;;4991945;28;20045;-75
2023/05/11 08:24:39;;;;;;;12.10;5.57;;;13.60;99.90;;;;;;4980914;28;20062;-77
2023/05/11 08:27:08;;;;;;;8.88;5.75;;;13.70;99.90;;;;;;5013239;28;20380;-75
2023/05/11 08:29:35;;;;;;;7.38;4.78;;;13.70;99.90;;;;;;5010562;28;20050;-75
2023/05/11 08:32:12;;;;;;;10.45;5.15;;;13.70;99.90;;;;;;5009660;28;20109;-72
2023/05/11 08:34:43;;;;;;;9.80;5.68;;;13.60;99.90;;;;;;5057876;22;20091;-75
2023/05/11 08:37:20;;;;;;;14.30;6.03;;;13.70;99.90;;;;;;5046460;28;20502;-76
2023/05/11 08:39:54;;;;;;;9.82;4.97;;;13.80;99.90;;;;;;5028982;22;20042;-77
2023/05/11 08:42:37;;;;;;;10.15;5.05;;;13.80;99.90;;;;;;4980031;28;20057;-74
2023/05/11 08:45:12;;;;;;;9.30;5.45;;;13.70;99.90;;;;;;5007427;28;20073;-74
2023/05/11 08:47:53;;;;;;;8.75;4.72;;;13.70;99.90;;;;;;5008747;28;20050;-78
2023/05/11 08:50:21;;;;;;;9.18;4.88;;;13.60;99.90;;;;;;4958352;28;20308;-78
2023/05/11 08:53:09;;;;;;;10.10;4.65;;;13.60;99.90;;;;;;4996640;28;20144;-79
2023/05/11 08:55:40;;;;;;;7.60;5.07;;;13.60;99.90;;;;;;4996425;28;20123;-79
2023/05/11 08:58:11;;;;;;;7.85;4.80;;;13.60;99.90;;;;;;4991345;28;20046;-76
2023/05/11 09:00:40;;;;;;;;;;;13.60;99.90;;;;;;4974683;28;20054;-75
2023/05/11 09:03:30;;;;;;;7.53;4.60;;;13.50;99.90;;;;;;5017776;28;20378;-81
2023/05/11 09:06:01;;;;;;;11.43;5.75;;;13.50;99.90;;;;;;5009807;28;20054;-76
2023/05/11 09:08:44;;;;;;;10.02;4.53;;;13.60;99.90;;;;;;4994412;28;20072;-73
2023/05/11 09:11:27;;;;;;;7.38;5.28;;;13.60;99.90;;;;;;4979913;28;20049;-77
2023/05/11 09:13:54;;;;;;;9.15;4.95;;;13.60;99.90;;;;;;4991638;28;20561;-74
2023/05/11 09:16:22;;;;;;;7.63;4.57;;;13.70;99.90;;;;;;5005206;28;20058;-78
2023/05/11 09:19:07;;;;;;;7.18;4.80;;;13.80;99.90;;;;;;4990014;28;20057;-79
2023/05/11 09:21:59;;;;;;;8.40;5.78;;;13.80;99.90;;;;;;4990995;28;20057;-80
2023/05/11 09:24:47;;;;;;;11.40;5.82;;;13.80;99.90;;;;;;4985431;28;20401;-77
2023/05/11 09:27:23;;;;;;;5.78;4.40;;;13.90;99.90;;;;;;4972423;28;20078;-77
2023/05/11 09:30:25;;;;;;;9.75;5.07;;;14.00;99.90;;;;;;4998078;28;20494;-79
2023/05/11 09:33:23;;;;;;;7.63;4.15;;;14.00;99.90;;;;;;5026437;28;20050;-79
2023/05/11 09:35:55;;;;;;;8.60;5.13;;;14.20;99.90;;;;;;5010128;28;20046;-79
2023/05/11 09:38:33;;;;;;;8.13;4.57;;;14.30;99.90;;;;;;4999330;28;20058;-79
2023/05/11 09:41:02;;;;;;;9.35;4.60;;;14.30;99.90;;;;;;5019714;28;20066;-76
2023/05/11 09:43:44;;;;;;;6.63;4.45;;;14.30;99.90;;;;;;4997673;28;20053;-75
2023/05/11 09:46:24;;;;;;;9.35;5.75;;;14.30;99.90;;;;;;4974558;28;20113;-75
2023/05/11 09:48:59;;;;;;;5.63;3.60;;;14.50;99.90;;;;;;5010084;28;20118;-73
2023/05/11 09:51:33;;;;;;;16.60;9.68;;;14.50;99.90;;;;;;5008479;28;20077;-78
2023/05/11 09:54:51;;;;;;;19.23;10.95;;;14.50;99.90;;;;;;5013839;28;20034;-74
2023/05/11 09:57:32;;;;;;;16.30;8.60;;;14.80;99.90;;;;;;4997066;28;20081;-80
2023/05/11 10:00:04;;;;;;;6.22;4.22;;;14.90;99.90;;;;;;4997211;28;20077;-73
2023/05/11 10:02:35;;;;;;;10.80;6.25;;;14.70;99.90;;;;;;4982650;28;20157;-75
2023/05/11 10:05:12;;;;;;;10.60;6.50;;;14.70;99.90;;;;;;5021178;28;20050;-74
2023/05/11 10:08:21;;;;;;;7.22;5.38;;;14.70;99.90;;;;;;5024494;28;20042;-77
2023/05/11 10:11:29;;;;;;;9.88;6.00;;;14.80;99.90;;;;;;5028710;28;20114;-75
2023/05/11 10:14:15;;;;;;;12.68;7.32;;;14.90;99.90;;;;;;5001488;28;20058;-76
2023/05/11 10:16:46;;;;;;;11.13;4.30;;;14.90;99.90;;;;;;5004863;28;20072;-75
2023/05/11 10:19:27;;;;;;;8.43;4.60;;;14.80;99.90;;;;;;4987455;28;20055;-75
2023/05/11 10:22:33;;;;;;;7.80;5.32;;;14.80;99.90;;;;;;4992996;28;20047;-74
2023/05/11 10:25:17;;;;;;;7.10;4.50;;;14.80;99.90;;;;;;5029445;28;20049;-74
2023/05/11 10:27:44;;;;;;;8.82;5.30;;;14.90;99.90;;;;;;5026210;28;20057;-74
2023/05/11 10:30:16;;;;;;;6.80;4.38;;;14.80;99.90;;;;;;4976981;28;20066;-73
2023/05/11 10:33:05;;;;;;;6.55;3.97;;;14.80;99.90;;;;;;5014672;28;20050;-79
2023/05/11 10:35:55;;;;;;;10.18;5.40;;;14.70;99.90;;;;;;5035790;28;20045;-77
2023/05/11 10:39:10;;;;;;;;;;;14.70;99.90;;;;;;5003606;28;20057;-73
2023/05/11 10:42:00;;;;;;;6.55;4.40;;;14.80;99.90;;;;;;4999802;28;19925;-72
2023/05/11 10:44:48;;;;;;;7.82;4.75;;;14.80;99.90;;;;;;5003608;28;20054;-76
2023/05/11 10:47:54;;;;;;;7.03;4.53;;;14.80;99.90;;;;;;5002233;28;20054;-77
2023/05/11 10:50:36;;;;;;;7.22;4.40;;;14.80;99.90;;;;;;5028114;28;20053;-74
2023/05/11 10:53:29;;;;;;;6.18;3.70;;;14.80;99.90;;;;;;5016089;28;20049;-75
2023/05/11 10:56:34;;;;;;;9.77;4.53;;;14.80;99.90;;;;;;5013605;28;20055;-72
2023/05/11 10:59:26;;;;;;;6.90;4.47;;;14.80;99.90;;;;;;5013943;28;20402;-74
2023/05/11 11:01:57;;;;;;;6.38;3.97;;;14.90;99.90;;;;;;4991518;28;20058;-75
2023/05/11 11:04:41;;;;;;;6.97;4.30;;;14.90;99.90;;;;;;4979676;28;20046;-74
2023/05/11 11:07:16;;;;;;;6.72;4.30;;;15.00;99.90;;;;;;4997517;28;20499;-77
2023/05/11 11:10:05;;;;;;;5.88;4.25;;;15.00;99.90;;;;;;4977278;28;20039;-76
2023/05/11 11:13:01;;;;;;;8.18;5.07;;;15.10;99.90;;;;;;4998494;28;20053;-75
2023/05/11 11:15:54;;;;;;;8.27;5.05;;;15.10;99.90;;;;;;5010470;28;20141;-76
2023/05/11 11:18:33;;;;;;;12.55;7.25;;;15.10;99.90;;;;;;4997509;28;20053;-77
2023/05/11 11:21:03;;;;;;;9.00;5.05;;;15.00;99.90;;;;;;5027665;28;20037;-77
2023/05/11 11:23:50;;;;;;;8.35;5.03;;;15.00;99.90;;;;;;5015117;28;20102;-76
2023/05/11 11:26:51;;;;;;;12.73;5.45;;;14.90;99.90;;;;;;5003469;28;20105;-73
2023/05/11 11:29:45;;;;;;;9.60;5.70;;;14.60;99.90;;;;;;4996932;28;20754;-74
2023/05/11 11:32:27;;;;;;;7.78;4.82;;;14.60;99.90;;;;;;5007946;28;20053;-76
2023/05/11 11:35:40;;;;;;;6.82;4.85;;;14.70;99.90;;;;;;5008452;28;20089;-76
2023/05/11 11:38:27;;;;;;;8.18;5.40;;;14.90;99.90;;;;;;5011831;28;20065;-72
2023/05/11 11:41:09;;;;;;;11.27;5.18;;;15.00;99.90;;;;;;4991201;28;20048;-75
2023/05/11 11:43:54;;;;;;;8.88;5.20;;;14.90;99.90;;;;;;5008672;28;20109;-73
2023/05/11 11:46:29;;;;;;;8.48;5.43;;;14.90;99.90;;;;;;5000327;28;20508;-79
2023/05/11 11:49:15;;;;;;;8.77;5.53;;;15.10;99.90;;;;;;4988917;28;20057;-74
2023/05/11 11:51:57;;;;;;;11.70;5.97;;;15.10;99.90;;;;;;4990127;28;20121;-72
2023/05/11 11:54:43;;;;;;;7.25;5.65;;;15.10;99.90;;;;;;5027042;23;20085;-74
2023/05/11 11:57:33;;;;;;;10.10;6.15;;;15.10;99.90;;;;;;5056166;28;20069;-74
2023/05/11 12:00:20;;;;;;;8.73;5.72;;;15.10;99.90;;;;;;5022985;28;20045;-80
2023/05/11 12:03:03;;;;;;;9.57;5.60;;;15.00;99.90;;;;;;5009734;28;20112;-79
2023/05/11 12:05:38;;;;;;;8.60;5.60;;;15.10;99.90;;;;;;5011584;28;20125;-78
2023/05/11 12:08:22;;;;;;;9.75;5.70;;;15.10;99.90;;;;;;5012434;28;20128;-73
2023/05/11 12:10:53;;;;;;;;;;;15.00;99.90;;;;;;4985008;28;20055;-77
2023/05/11 12:13:36;;;;;;;8.57;5.57;;;15.10;99.90;;;;;;5005449;28;19928;-77
2023/05/11 12:16:14;;;;;;;13.45;5.97;;;15.10;99.90;;;;;;5026531;28;20591;-76
2023/05/11 12:18:55;;;;;;;7.95;5.40;;;15.00;99.90;;;;;;4995906;28;20054;-75
2023/05/11 12:21:31;;;;;;;8.98;5.43;;;15.10;99.90;;;;;;5022988;28;20076;-71
2023/05/11 12:24:02;;;;;;;8.70;5.53;;;15.20;99.90;;;;;;5028061;28;20065;-75
2023/05/11 12:26:34;;;;;;;8.60;5.60;;;15.20;99.90;;;;;;5003379;28;21405;-74
2023/05/11 12:29:15;;;;;;;18.90;6.13;;;15.10;99.90;;;;;;5042677;28;20050;-74
2023/05/11 12:31:52;;;;;;;12.18;6.15;;;15.10;99.90;;;;;;5029790;28;20069;-77
2023/05/11 12:34:31;;;;;;;;;;;15.20;99.90;;;;;;5008429;28;20053;-79
2023/05/11 12:37:00;;;;;;;7.97;5.50;;;15.20;99.90;;;;;;4998363;28;19921;-78
2023/05/11 12:39:34;;;;;;;11.52;6.63;;;15.40;99.90;;;;;;5018501;28;20050;-75
2023/05/11 12:42:06;;;;;;;8.52;5.97;;;15.50;99.90;;;;;;4981583;28;20058;-78
2023/05/11 12:44:42;;;;;;;9.15;5.53;;;15.60;99.90;;;;;;5018996;28;20514;-77
2023/05/11 12:47:10;;;;;;;9.25;4.97;;;15.70;99.90;;;;;;5000122;28;20054;-73
2023/05/11 12:49:42;;;;;;;7.25;4.93;;;15.60;99.90;;;;;;5019826;28;20046;-77
2023/05/11 12:52:12;;;;;;;9.77;5.00;;;15.60;99.90;;;;;;4988788;28;20053;-76
2023/05/11 12:54:52;;;;;;;8.77;5.03;;;15.50;99.90;;;;;;5004284;28;20045;-72
2023/05/11 12:57:30;;;;;;;5.28;3.47;;;15.50;99.90;;;;;;5013697;28;20058;-76
2023/05/11 13:00:08;;;;;;;6.20;3.38;;;15.50;99.90;;;;;;5012716;28;20629;-78
2023/05/11 13:02:49;;;;;;;6.75;4.22;;;15.40;99.90;;;;;;5021811;28;20053;-76
2023/05/11 13:05:25;;;;;;;7.82;4.20;;;15.50;99.90;;;;;;5023840;28;20455;-75
2023/05/11 13:08:05;;;;;;;6.45;4.00;;;15.50;99.90;;;;;;5000702;28;20425;-76
2023/05/11 13:10:38;;;;;;;9.90;3.83;;;15.50;99.90;;;;;;5007268;28;20046;-75
2023/05/11 13:13:28;;;;;;;5.45;3.67;;;15.50;99.90;;;;;;5034576;28;20070;-77
2023/05/11 13:16:03;;;;;;;6.05;3.65;;;15.30;99.90;;;;;;4995878;28;20110;-76
2023/05/11 13:18:31;;;;;;;8.35;4.38;;;15.40;99.90;;;;;;5019836;28;20462;-76
2023/05/11 13:21:08;;;;;;;5.65;3.50;;;15.40;99.90;;;;;;5004235;28;20073;-78
2023/05/11 13:23:36;;;;;;;5.10;3.42;;;15.40;99.90;;;;;;4993401;28;20097;-76
2023/05/11 13:26:26;;;;;;;7.45;3.83;;;15.40;99.90;;;;;;4992414;28;20053;-74
2023/05/11 13:28:55;;;;;;;8.30;4.13;;;15.60;99.90;;;;;;5015829;28;20054;-75
2023/05/11 13:31:49;;;;;;;5.13;3.50;;;15.60;99.90;;;;;;5011080;28;20569;-75
2023/05/11 13:34:24;;;;;;;8.23;3.70;;;15.60;99.90;;;;;;5013804;28;20102;-77
2023/05/11 13:37:09;;;;;;;5.72;3.53;;;15.60;99.90;;;;;;4997503;28;20116;-77